Time;durP1;ratioP1;P1;durP2;ratioP2;P2;SDS_P1;SDS_P2;PMS_P1;PMS_P2;Temp;Humidity;BMP_temperature;BMP_pressure;BME280_temperature;BME280_humidity;BME280_pressure;Samples;Min_cycle;Max_cycle;Signal;HPM_P1;HPM_P2
2022/01/09 00:00:54;;;;;;;13.35;7.35;;;;;;;0.88;81.85;100150.59;4994746;28;20038;-73
2022/01/09 00:03:20;;;;;;;14.98;7.57;;;;;;;0.83;82.07;100142.47;4994793;28;20042;-73
2022/01/09 00:05:45;;;;;;;12.90;6.95;;;;;;;0.88;81.89;100129.50;4997320;28;20127;-73
2022/01/09 00:08:11;;;;;;;16.00;8.02;;;;;;;0.87;82.27;100130.50;4982160;28;20023;-73
2022/01/09 00:10:37;;;;;;;15.60;7.40;;;;;;;0.84;82.18;100125.66;4985819;28;20025;-73
2022/01/09 00:13:02;;;;;;;16.60;8.60;;;;;;;0.83;82.07;100131.94;4994999;28;20499;-73
2022/01/09 00:15:28;;;;;;;16.00;7.85;;;;;;;0.84;81.87;100122.19;4997634;28;20175;-73
2022/01/09 00:17:53;;;;;;;18.50;8.88;;;;;;;0.83;81.65;100118.75;4997571;28;20030;-73
2022/01/09 00:20:19;;;;;;;17.25;8.63;;;;;;;0.77;81.91;100114.28;4996054;28;20033;-73
2022/01/09 00:22:48;;;;;;;15.20;7.93;;;;;;;0.73;82.15;100102.50;4984633;28;20057;-73
2022/01/09 00:25:16;;;;;;;15.57;8.25;;;;;;;0.75;82.00;100102.31;4996063;28;20034;-73
2022/01/09 00:27:42;;;;;;;15.68;8.10;;;;;;;0.72;82.02;100098.25;4992583;28;20025;-73
2022/01/09 00:30:10;;;;;;;15.63;7.60;;;;;;;0.70;81.92;100096.81;5000109;28;20479;-73
2022/01/09 00:32:36;;;;;;;17.02;8.35;;;;;;;0.66;82.36;100093.75;4972412;28;20429;-73
2022/01/09 00:35:03;;;;;;;18.83;9.35;;;;;;;0.66;82.06;100091.13;4998747;28;20106;-73
2022/01/09 00:37:28;;;;;;;16.45;8.07;;;;;;;0.64;82.12;100084.44;4999775;28;20027;-73
2022/01/09 00:39:54;;;;;;;16.08;8.38;;;;;;;0.62;81.78;100079.34;4978331;28;20030;-73
2022/01/09 00:42:20;;;;;;;14.43;7.53;;;;;;;0.59;82.21;100070.03;4999215;28;20033;-73
2022/01/09 00:44:46;;;;;;;14.77;8.07;;;;;;;0.57;82.13;100073.88;4998016;28;20084;-73
2022/01/09 00:47:11;;;;;;;16.80;8.30;;;;;;;0.52;81.92;100065.72;4997959;28;20490;-73
2022/01/09 00:49:37;;;;;;;14.57;7.82;;;;;;;0.49;82.27;100066.13;4998364;28;20034;-73
2022/01/09 00:52:03;;;;;;;13.27;8.07;;;;;;;0.52;82.31;100060.47;4997907;28;20117;-73
2022/01/09 00:54:28;;;;;;;17.92;8.18;;;;;;;0.47;82.14;100062.88;4996373;28;20463;-73
2022/01/09 00:56:54;;;;;;;14.98;7.60;;;;;;;0.50;81.99;100049.31;4980969;28;20037;-73
2022/01/09 00:59:20;;;;;;;15.07;7.25;;;;;;;0.50;82.28;100051.94;4975505;28;20034;-73
2022/01/09 01:01:45;;;;;;;17.30;8.57;;;;;;;0.44;81.74;100050.13;4994078;28;20054;-73
2022/01/09 01:04:10;;;;;;;15.73;8.45;;;;;;;0.46;81.86;100042.81;5013654;22;20018;-45
2022/01/09 01:06:36;;;;;;;17.88;8.00;;;;;;;0.44;81.77;100043.00;5030699;28;20033;-47
2022/01/09 01:09:02;;;;;;;14.60;7.85;;;;;;;0.43;81.71;100043.22;5026568;28;20112;-46
2022/01/09 01:11:27;;;;;;;16.05;7.45;;;;;;;0.40;81.80;100038.34;5029047;28;20510;-46
2022/01/09 01:13:53;;;;;;;12.63;7.10;;;;;;;0.38;81.36;100049.09;5031407;28;20029;-46
2022/01/09 01:16:18;;;;;;;17.05;8.07;;;;;;;0.33;81.35;100040.13;5040266;28;20059;-46
2022/01/09 01:18:45;;;;;;;13.75;8.05;;;;;;;0.36;81.43;100037.94;5039330;28;20020;-46
2022/01/09 01:21:12;;;;;;;11.48;7.30;;;;;;;0.34;81.05;100037.31;5036195;28;20029;-45
2022/01/09 01:23:37;;;;;;;11.65;6.43;;;;;;;0.34;80.99;100032.03;5041093;28;20021;-45
2022/01/09 01:26:03;;;;;;;15.40;7.95;;;;;;;0.25;81.26;100027.97;5036959;28;20027;-45
2022/01/09 01:28:30;;;;;;;11.57;7.85;;;;;;;0.23;81.13;100035.25;5045360;28;20402;-45
2022/01/09 01:30:56;;;;;;;13.68;8.27;;;;;;;0.23;80.87;100027.34;5042894;28;20138;-46
2022/01/09 01:33:22;;;;;;;13.93;7.72;;;;;;;0.26;81.33;100032.22;5046333;28;20045;-46
2022/01/09 01:35:47;;;;;;;13.63;8.32;;;;;;;0.25;80.81;100026.16;5043499;28;20650;-45
2022/01/09 01:38:13;;;;;;;16.08;7.82;;;;;;;0.22;80.66;100023.91;5046993;28;20266;-45
2022/01/09 01:40:40;;;;;;;24.02;7.88;;;;;;;0.21;80.88;100017.03;5038658;28;20115;-46
2022/01/09 01:43:07;;;;;;;15.43;8.02;;;;;;;0.20;80.56;100015.41;5046130;28;20029;-46
2022/01/09 01:45:33;;;;;;;18.58;8.77;;;;;;;0.24;80.53;100016.63;5043868;28;20401;-46
2022/01/09 01:48:05;;;;;;;14.00;7.95;;;;;;;0.25;80.06;100006.88;5044693;28;20040;-45
2022/01/09 01:50:36;;;;;;;17.20;8.88;;;;;;;0.19;80.26;100000.59;5046546;28;20059;-46
2022/01/09 01:53:03;;;;;;;17.55;8.25;;;;;;;0.18;80.05;100000.78;5044663;28;20549;-45
2022/01/09 01:55:33;;;;;;;16.48;8.05;;;;;;;0.15;80.52;100006.44;5039970;28;20592;-47
2022/01/09 01:57:58;;;;;;;17.95;8.63;;;;;;;0.10;80.20;99998.34;5045464;28;20128;-46
2022/01/09 02:00:24;;;;;;;17.15;7.70;;;;;;;0.07;80.41;99998.72;5046101;28;20518;-45
2022/01/09 02:02:49;;;;;;;14.27;7.40;;;;;;;0.08;80.65;99997.72;5042958;28;20031;-47
2022/01/09 02:05:15;;;;;;;16.83;8.05;;;;;;;0.04;80.13;99989.41;5044244;28;20040;-46
2022/01/09 02:07:41;;;;;;;17.90;7.20;;;;;;;0.04;80.22;99986.78;5037970;28;20028;-45
2022/01/09 02:10:08;;;;;;;14.70;8.35;;;;;;;0.01;80.17;99976.63;5040670;28;20450;-46
2022/01/09 02:12:38;;;;;;;15.93;8.13;;;;;;;0.02;80.52;99978.25;5034811;28;20068;-45
2022/01/09 02:15:29;;;;;;;15.23;7.13;;;;;;;-0.03;80.21;99978.03;5040318;28;20029;-46
2022/01/09 02:17:55;;;;;;;16.80;7.45;;;;;;;-0.03;80.42;99975.38;5041367;28;20029;-46
2022/01/09 02:20:22;;;;;;;15.75;8.55;;;;;;;-0.03;80.33;99970.13;5043746;28;20024;-46
2022/01/09 02:22:47;;;;;;;19.67;8.07;;;;;;;-0.03;80.38;99968.31;5040141;28;20075;-45
2022/01/09 02:25:14;;;;;;;15.05;7.35;;;;;;;-0.04;80.10;99956.16;5039991;28;20032;-46
2022/01/09 02:27:40;;;;;;;14.05;7.82;;;;;;;-0.03;79.92;99962.22;5039158;28;20017;-46
2022/01/09 02:30:06;;;;;;;14.07;7.30;;;;;;;-0.04;80.23;99957.97;5039483;28;20032;-46
2022/01/09 02:32:31;;;;;;;15.57;8.13;;;;;;;-0.04;80.14;99968.50;5041191;28;20032;-45
2022/01/09 02:34:57;;;;;;;16.25;6.28;;;;;;;-0.05;80.18;99965.06;5040511;28;20048;-45
2022/01/09 02:37:23;;;;;;;14.65;7.80;;;;;;;-0.07;80.19;99969.72;5041297;28;20035;-47
2022/01/09 02:39:49;;;;;;;16.65;6.95;;;;;;;-0.09;79.97;99963.03;5034355;28;20441;-45
2022/01/09 02:42:22;;;;;;;14.35;7.65;;;;;;;-0.12;80.08;99953.69;5043303;28;20478;-45
2022/01/09 02:44:47;;;;;;;14.50;7.38;;;;;;;-0.04;79.73;99939.53;5030356;28;20482;-45
2022/01/09 02:47:13;;;;;;;12.85;6.72;;;;;;;-0.08;79.55;99948.84;5036370;28;20094;-46
2022/01/09 02:49:39;;;;;;;18.00;7.90;;;;;;;-0.09;79.38;99939.31;5039585;28;20107;-46
2022/01/09 02:52:11;;;;;;;13.82;8.07;;;;;;;-0.10;79.69;99930.63;5039712;28;20025;-45
2022/01/09 02:57:20;;;;;;;12.60;6.93;;;;;;;-0.23;79.62;99943.72;5038073;28;20505;-45
2022/01/09 02:59:46;;;;;;;15.73;8.02;;;;;;;-0.21;79.81;99943.53;5035765;28;20033;-46
2022/01/09 03:02:11;;;;;;;14.82;7.35;;;;;;;-0.24;80.10;99943.94;5042555;28;20056;-45
2022/01/09 03:04:37;;;;;;;14.13;7.68;;;;;;;-0.27;80.17;99949.59;5032363;28;20445;-46
2022/01/09 03:07:03;;;;;;;16.08;8.05;;;;;;;-0.29;80.10;99939.25;5040719;28;20419;-45
2022/01/09 03:09:28;;;;;;;17.63;7.45;;;;;;;-0.27;79.84;99941.69;5035515;28;20256;-46
2022/01/09 03:11:54;;;;;;;11.90;7.07;;;;;;;-0.27;79.84;99936.44;5036823;28;20032;-45
2022/01/09 03:14:19;;;;;;;15.52;8.32;;;;;;;-0.28;79.52;99925.09;5039840;28;20028;-45
2022/01/09 03:16:45;;;;;;;17.52;7.95;;;;;;;-0.31;80.07;99928.13;5036642;28;20032;-46
2022/01/09 03:19:10;;;;;;;19.55;8.27;;;;;;;-0.34;79.93;99923.25;5034211;28;20030;-45
2022/01/09 03:21:36;;;;;;;16.85;8.30;;;;;;;-0.31;80.14;99936.81;5038402;28;20017;-46
2022/01/09 03:24:01;;;;;;;16.05;8.10;;;;;;;-0.34;79.65;99939.84;5040541;28;20033;-46
2022/01/09 03:26:27;;;;;;;14.70;7.60;;;;;;;-0.40;79.66;99924.84;5038232;28;20244;-45
2022/01/09 03:28:52;;;;;;;18.83;8.35;;;;;;;-0.37;79.62;99926.25;5038353;28;20033;-45
2022/01/09 03:31:18;;;;;;;15.43;8.38;;;;;;;-0.41;79.80;99923.22;5038599;28;20033;-45
2022/01/09 03:33:43;;;;;;;15.10;8.63;;;;;;;-0.45;80.02;99922.00;5037672;28;20541;-45
2022/01/09 03:36:09;;;;;;;16.98;7.85;;;;;;;-0.41;79.71;99911.88;5036809;28;20079;-46
2022/01/09 03:38:34;;;;;;;14.30;8.00;;;;;;;-0.38;79.85;99912.28;5037171;28;20035;-45
2022/01/09 03:41:00;;;;;;;15.45;8.60;;;;;;;-0.41;80.31;99903.97;5033073;28;20025;-45
2022/01/09 03:43:25;;;;;;;16.20;8.00;;;;;;;-0.39;80.18;99900.13;5039845;28;20033;-46
2022/01/09 03:45:51;;;;;;;14.82;8.10;;;;;;;-0.42;79.77;99895.28;5038189;28;20132;-45
2022/01/09 03:48:16;;;;;;;17.52;8.77;;;;;;;-0.40;80.16;99906.41;5042723;28;20033;-45
2022/01/09 03:50:49;;;;;;;16.52;7.78;;;;;;;-0.42;79.98;99900.53;5040017;28;20032;-46
2022/01/09 03:53:15;;;;;;;16.75;8.70;;;;;;;-0.42;80.10;99882.13;5037227;28;20037;-45
2022/01/09 03:55:40;;;;;;;18.10;8.88;;;;;;;-0.43;80.14;99888.38;5028356;28;20025;-46
2022/01/09 03:58:06;;;;;;;19.70;9.05;;;;;;;-0.42;80.04;99876.84;5036969;28;20585;-46
2022/01/09 04:00:32;;;;;;;19.63;9.20;;;;;;;-0.39;79.82;99886.97;5039891;28;20028;-46
2022/01/09 04:02:57;;;;;;;21.23;9.13;;;;;;;-0.42;79.48;99879.47;5040421;28;20036;-45
2022/01/09 04:05:23;;;;;;;20.08;9.93;;;;;;;-0.42;79.93;99876.84;5037230;28;20036;-47
2022/01/09 04:07:49;;;;;;;20.13;9.57;;;;;;;-0.39;80.17;99873.81;5037328;28;20139;-45
2022/01/09 04:10:14;;;;;;;18.17;8.93;;;;;;;-0.42;79.94;99876.84;5036324;28;20398;-45
2022/01/09 04:12:52;;;;;;;18.63;8.70;;;;;;;-0.45;79.60;99877.25;5036130;28;20033;-46
2022/01/09 04:15:18;;;;;;;22.85;9.80;;;;;;;-0.40;79.65;99882.72;5037974;28;20013;-46
2022/01/09 04:20:12;;;;;;;21.30;8.32;;;;;;;-0.43;79.67;99893.66;5037957;28;20286;-46
2022/01/09 04:22:38;;;;;;;15.93;9.13;;;;;;;-0.47;79.33;99875.81;5033581;28;20467;-46
2022/01/09 04:25:04;;;;;;;17.58;9.35;;;;;;;-0.50;79.16;99871.78;5036776;28;20391;-46
2022/01/09 04:27:31;;;;;;;17.02;8.90;;;;;;;-0.47;79.37;99874.00;5038243;28;20032;-45
2022/01/09 04:29:56;;;;;;;16.45;7.90;;;;;;;-0.47;79.56;99881.09;5035567;28;20032;-45
2022/01/09 04:32:22;;;;;;;16.23;7.80;;;;;;;-0.44;79.45;99876.25;5038890;28;20308;-45
2022/01/09 04:34:47;;;;;;;17.27;7.82;;;;;;;-0.38;78.59;99869.38;5033139;28;20399;-45
2022/01/09 04:37:13;;;;;;;14.25;6.65;;;;;;;-0.38;78.84;99862.28;5034492;28;20030;-46
2022/01/09 04:39:38;;;;;;;16.67;7.57;;;;;;;-0.40;78.68;99868.75;5036571;28;20028;-46
2022/01/09 04:42:04;;;;;;;12.85;6.88;;;;;;;-0.42;78.31;99857.63;5033862;28;20039;-45
2022/01/09 04:44:30;;;;;;;16.13;7.07;;;;;;;-0.39;78.02;99860.66;5038180;28;20044;-45
2022/01/09 04:47:01;;;;;;;10.27;5.97;;;;;;;-0.36;77.77;99857.66;5034596;28;20295;-45
2022/01/09 04:49:33;;;;;;;11.65;6.28;;;;;;;-0.35;77.68;99861.91;5036101;28;20021;-46
2022/01/09 04:52:00;;;;;;;13.73;5.97;;;;;;;-0.35;77.32;99858.47;5035004;28;20025;-46
2022/01/09 04:54:26;;;;;;;12.43;5.78;;;;;;;-0.35;77.51;99864.53;5038296;28;20579;-45
2022/01/09 04:56:51;;;;;;;11.32;5.95;;;;;;;-0.32;77.20;99865.97;5034397;28;20068;-45
2022/01/09 04:59:17;;;;;;;10.70;5.75;;;;;;;-0.31;77.19;99862.31;5038075;28;20021;-45
2022/01/09 05:01:42;;;;;;;12.32;6.07;;;;;;;-0.29;77.10;99868.19;5033143;28;20033;-45
2022/01/09 05:04:08;;;;;;;9.43;5.07;;;;;;;-0.27;76.52;99865.34;5045121;28;20025;-45
2022/01/09 05:06:33;;;;;;;12.70;5.82;;;;;;;-0.29;76.53;99868.19;5032150;28;20111;-46
2022/01/09 05:08:59;;;;;;;14.48;5.50;;;;;;;-0.30;75.97;99866.56;5033514;28;20108;-46
2022/01/09 05:11:24;;;;;;;10.75;5.20;;;;;;;-0.29;76.35;99852.41;5034837;28;20039;-46
2022/01/09 05:13:50;;;;;;;10.35;4.65;;;;;;;-0.28;75.83;99856.66;5033542;28;20037;-46
2022/01/09 05:16:15;;;;;;;10.07;4.85;;;;;;;-0.26;75.92;99856.44;5032721;28;20021;-45
2022/01/09 05:18:58;;;;;;;12.00;4.93;;;;;;;-0.28;75.95;99861.91;5031103;28;20318;-45
2022/01/09 05:21:24;;;;;;;11.02;4.93;;;;;;;-0.27;76.07;99862.72;5034654;28;20032;-46
2022/01/09 05:23:49;;;;;;;8.02;4.57;;;;;;;-0.26;75.95;99859.09;5032355;28;20032;-45
2022/01/09 05:26:15;;;;;;;12.18;5.40;;;;;;;-0.24;76.13;99862.31;5031763;28;20082;-46
2022/01/09 05:28:41;;;;;;;7.53;4.07;;;;;;;-0.27;75.29;99860.09;5035729;28;20275;-46
2022/01/09 05:31:06;;;;;;;12.40;5.22;;;;;;;-0.25;75.27;99858.06;5033165;28;20028;-45
2022/01/09 05:33:32;;;;;;;12.43;6.05;;;;;;;-0.27;75.48;99852.19;5037453;28;20478;-45
2022/01/09 05:35:57;;;;;;;10.25;5.43;;;;;;;-0.27;75.31;99846.94;5030514;28;20066;-45
2022/01/09 05:38:24;;;;;;;10.75;5.55;;;;;;;-0.29;75.38;99843.69;5036794;28;20032;-46
2022/01/09 05:40:49;;;;;;;11.20;5.60;;;;;;;-0.26;75.38;99852.00;5033330;28;20024;-46
2022/01/09 05:43:15;;;;;;;14.65;6.38;;;;;;;-0.28;75.73;99846.13;5039049;28;20056;-46
2022/01/09 05:45:40;;;;;;;12.35;6.20;;;;;;;-0.34;75.62;99852.19;5034505;28;20390;-46
2022/01/09 05:48:06;;;;;;;12.80;6.38;;;;;;;-0.26;75.48;99856.44;5037505;28;20246;-45
2022/01/09 05:50:33;;;;;;;13.55;6.63;;;;;;;-0.27;75.86;99839.84;5037642;28;20068;-45
2022/01/09 05:52:59;;;;;;;10.90;6.47;;;;;;;-0.23;75.41;99841.06;5037709;28;20043;-45
2022/01/09 05:55:25;;;;;;;14.82;7.10;;;;;;;-0.21;75.41;99832.97;5038857;28;20025;-46
2022/01/09 05:57:50;;;;;;;16.67;7.63;;;;;;;-0.19;75.66;99836.19;5036157;28;20035;-46
2022/01/09 06:00:16;;;;;;;15.75;7.22;;;;;;;-0.18;75.46;99832.56;5037687;28;20072;-46
2022/01/09 06:02:42;;;;;;;14.52;6.93;;;;;;;-0.14;75.85;99825.91;5036596;28;20144;-45
2022/01/09 06:05:08;;;;;;;15.57;7.63;;;;;;;-0.17;75.72;99823.69;5037440;28;20043;-47
2022/01/09 06:07:38;;;;;;;13.88;7.57;;;;;;;-0.16;75.76;99822.66;5038783;28;20025;-46
2022/01/09 06:10:04;;;;;;;12.25;7.55;;;;;;;-0.15;75.87;99819.00;5035983;28;20032;-45
2022/01/09 06:12:29;;;;;;;16.90;7.88;;;;;;;-0.14;75.72;99818.00;5041285;28;20094;-45
2022/01/09 06:14:55;;;;;;;13.70;7.82;;;;;;;-0.14;76.16;99820.63;5039386;28;20112;-45
2022/01/09 06:17:20;;;;;;;16.70;7.85;;;;;;;-0.16;76.08;99812.94;5042921;28;20029;-45
2022/01/09 06:19:46;;;;;;;14.90;7.18;;;;;;;-0.15;75.75;99824.28;5037857;28;20029;-45
2022/01/09 06:22:17;;;;;;;12.40;7.25;;;;;;;-0.13;76.02;99824.88;5034284;28;20044;-45
2022/01/09 06:24:46;;;;;;;19.25;8.10;;;;;;;-0.15;76.08;99821.66;5036479;28;20042;-45
2022/01/09 06:27:11;;;;;;;16.75;7.60;;;;;;;-0.13;75.99;99824.88;5039211;28;20120;-45
2022/01/09 06:29:37;;;;;;;14.48;7.45;;;;;;;-0.13;76.11;99819.63;5037163;28;20435;-45
2022/01/09 06:32:02;;;;;;;17.17;8.32;;;;;;;-0.13;76.00;99822.25;5037392;28;20443;-45
2022/01/09 06:34:28;;;;;;;17.58;8.05;;;;;;;-0.15;76.34;99816.38;5039981;28;20064;-45
2022/01/09 06:36:54;;;;;;;15.65;8.10;;;;;;;-0.17;76.53;99821.03;5037561;28;20052;-45
2022/01/09 06:39:19;;;;;;;15.55;7.65;;;;;;;-0.16;76.76;99817.41;5040620;28;20021;-45
2022/01/09 06:41:45;;;;;;;15.10;8.25;;;;;;;-0.14;76.62;99828.53;5037107;28;20079;-45
2022/01/09 06:44:10;;;;;;;18.13;9.13;;;;;;;-0.17;76.79;99821.84;5037999;28;20060;-45
2022/01/09 06:46:35;;;;;;;18.25;8.52;;;;;;;-0.15;76.79;99825.09;5035823;28;20020;-45
2022/01/09 06:49:02;;;;;;;21.13;9.43;;;;;;;-0.15;76.84;99833.00;5038233;28;20108;-45
2022/01/09 06:51:28;;;;;;;17.52;7.95;;;;;;;-0.15;76.98;99822.47;5038464;28;20025;-46
2022/01/09 06:53:53;;;;;;;15.80;8.27;;;;;;;-0.14;76.86;99823.28;5039299;28;20505;-45
2022/01/09 06:56:19;;;;;;;16.23;8.70;;;;;;;-0.13;77.09;99828.31;5039828;28;20423;-45
2022/01/09 06:58:44;;;;;;;17.77;9.45;;;;;;;-0.15;77.13;99837.44;5037105;28;20029;-45
2022/01/09 07:01:10;;;;;;;19.10;8.63;;;;;;;-0.14;77.43;99839.88;5037785;28;20048;-45
2022/01/09 07:03:35;;;;;;;18.70;9.70;;;;;;;-0.13;77.41;99835.41;5039721;28;20489;-45
2022/01/09 07:06:01;;;;;;;18.35;8.93;;;;;;;-0.13;77.58;99838.06;5036361;28;20142;-46
2022/01/09 07:08:27;;;;;;;17.17;8.93;;;;;;;-0.11;77.09;99843.94;5040330;28;20433;-45
2022/01/09 07:10:53;;;;;;;16.95;8.73;;;;;;;-0.10;77.49;99842.91;5036980;28;20396;-45
2022/01/09 07:13:18;;;;;;;20.08;8.88;;;;;;;-0.09;77.23;99841.91;5036349;28;20111;-46
2022/01/09 07:15:44;;;;;;;21.65;9.43;;;;;;;-0.07;77.02;99850.41;5038303;28;20033;-45
2022/01/09 07:18:10;;;;;;;20.08;9.68;;;;;;;-0.06;77.20;99836.22;5041255;28;21626;-45
2022/01/09 07:20:35;;;;;;;16.15;8.63;;;;;;;-0.07;77.21;99842.50;5035652;28;20500;-45
2022/01/09 07:23:01;;;;;;;19.88;9.35;;;;;;;-0.07;77.26;99845.94;5037422;28;20025;-45
2022/01/09 07:25:26;;;;;;;18.67;9.60;;;;;;;-0.08;76.99;99841.69;5038121;28;20029;-45
2022/01/09 07:27:51;;;;;;;22.52;8.98;;;;;;;-0.12;76.99;99837.84;5034964;28;20029;-45
2022/01/09 07:30:17;;;;;;;18.40;8.93;;;;;;;-0.16;77.59;99838.47;5035573;28;20410;-46
2022/01/09 07:32:43;;;;;;;18.75;8.85;;;;;;;-0.14;77.27;99849.59;5034590;28;20074;-45
2022/01/09 07:35:09;;;;;;;19.52;8.85;;;;;;;-0.14;77.38;99842.50;5038553;28;20462;-46
2022/01/09 07:37:34;;;;;;;17.45;8.55;;;;;;;-0.17;77.03;99835.00;5035038;28;20040;-46
2022/01/09 07:40:00;;;;;;;16.90;9.00;;;;;;;-0.13;77.29;99843.31;5036388;28;20029;-45
2022/01/09 07:42:26;;;;;;;15.88;8.63;;;;;;;-0.09;77.30;99849.78;5035995;28;20025;-45
2022/01/09 07:44:51;;;;;;;16.77;8.45;;;;;;;-0.10;77.28;99850.81;5038544;28;20067;-47
2022/01/09 07:47:17;;;;;;;20.35;9.85;;;;;;;-0.07;77.16;99851.22;5038638;28;20083;-45
2022/01/09 07:49:42;;;;;;;20.35;10.15;;;;;;;-0.02;76.74;99850.59;5038378;28;20041;-45
2022/01/09 07:52:08;;;;;;;18.90;9.20;;;;;;;-0.06;76.93;99844.94;5038024;28;20025;-45
2022/01/09 07:54:33;;;;;;;20.45;9.77;;;;;;;-0.03;77.17;99851.63;5039214;28;20025;-48
2022/01/09 07:56:59;;;;;;;24.85;10.70;;;;;;;-0.05;76.70;99849.19;5036073;28;20040;-45
2022/01/09 07:59:24;;;;;;;22.40;10.10;;;;;;;-0.03;76.72;99856.88;5031630;28;20032;-46
2022/01/09 08:01:50;;;;;;;22.75;10.13;;;;;;;0.03;77.09;99853.47;5037782;28;20025;-45
2022/01/09 08:04:16;;;;;;;23.88;10.90;;;;;;;0.09;76.67;99843.94;5038338;28;20127;-45
2022/01/09 08:06:41;;;;;;;21.50;10.10;;;;;;;0.12;76.90;99846.97;5036364;28;20478;-45
2022/01/09 08:09:07;;;;;;;29.80;11.00;;;;;;;0.17;76.79;99852.44;5037445;28;20047;-46
2022/01/09 08:11:33;;;;;;;23.48;10.68;;;;;;;0.20;76.55;99854.69;5054095;28;20029;-45
2022/01/09 08:13:58;;;;;;;21.02;9.95;;;;;;;0.22;76.49;99855.31;5035848;28;20036;-46
2022/01/09 08:16:24;;;;;;;24.88;9.95;;;;;;;0.27;76.44;99860.75;5038326;28;20025;-45
2022/01/09 08:18:49;;;;;;;27.45;11.13;;;;;;;0.26;76.61;99853.06;5036507;28;20029;-46
2022/01/09 08:21:19;;;;;;;22.05;9.73;;;;;;;0.32;76.40;99849.59;5037784;28;20068;-45
2022/01/09 08:23:49;;;;;;;23.88;11.32;;;;;;;0.37;76.50;99847.19;5035741;28;20029;-46
2022/01/09 08:26:15;;;;;;;18.83;10.32;;;;;;;0.44;76.38;99857.72;5037524;28;20029;-46
2022/01/09 08:28:44;;;;;;;23.45;11.27;;;;;;;0.45;76.08;99851.44;5034983;28;20475;-46
2022/01/09 08:31:11;;;;;;;27.27;11.93;;;;;;;0.47;76.20;99854.69;5029528;28;20073;-46
2022/01/09 08:33:37;;;;;;;26.00;11.82;;;;;;;0.55;75.96;99852.66;5031489;28;20454;-45
2022/01/09 08:36:02;;;;;;;28.63;13.23;;;;;;;0.56;76.01;99851.63;5036573;28;20249;-46
2022/01/09 08:38:28;;;;;;;25.58;11.18;;;;;;;0.59;75.87;99856.50;5045932;28;20044;-45
2022/01/09 08:40:53;;;;;;;30.45;12.70;;;;;;;0.64;75.71;99858.50;5038453;28;20113;-45
2022/01/09 08:43:19;;;;;;;28.45;13.65;;;;;;;0.58;75.89;99860.16;5037111;28;20040;-46
2022/01/09 08:45:44;;;;;;;31.00;13.68;;;;;;;0.63;75.83;99862.16;5035675;28;20045;-46
2022/01/09 08:48:10;;;;;;;27.50;13.40;;;;;;;0.66;75.78;99861.75;5035952;28;20079;-46
2022/01/09 08:50:36;;;;;;;28.15;13.18;;;;;;;0.65;75.62;99846.94;5036577;28;20513;-45
2022/01/09 08:53:02;;;;;;;31.45;14.48;;;;;;;0.70;75.70;99847.13;5034567;28;20576;-45
2022/01/09 08:55:27;;;;;;;31.35;14.52;;;;;;;0.73;75.47;99851.22;5036291;28;20048;-45
2022/01/09 08:57:53;;;;;;;32.90;15.32;;;;;;;0.70;75.61;99852.41;5044797;28;20550;-45
2022/01/09 09:00:18;;;;;;;30.90;14.88;;;;;;;0.76;75.43;99843.69;5037720;28;20489;-48
2022/01/09 09:02:44;;;;;;;33.25;15.77;;;;;;;0.77;75.44;99842.69;5033373;28;20036;-46
2022/01/09 09:05:10;;;;;;;35.25;14.30;;;;;;;0.85;75.61;99842.44;5036118;28;20776;-46
2022/01/09 09:07:36;;;;;;;30.85;15.40;;;;;;;0.91;75.12;99848.75;5035772;28;20036;-46
2022/01/09 09:10:03;;;;;;;37.00;15.20;;;;;;;0.97;75.21;99852.38;5035438;28;21015;-46
2022/01/09 09:12:29;;;;;;;29.77;13.55;;;;;;;1.00;74.84;99842.22;5034784;28;20442;-45
2022/01/09 09:14:55;;;;;;;32.20;13.48;;;;;;;1.02;75.00;99842.00;5033108;28;20025;-46
2022/01/09 09:17:21;;;;;;;28.33;13.07;;;;;;;0.98;74.43;99846.88;5036262;28;20247;-46
2022/01/09 09:19:46;;;;;;;33.75;14.43;;;;;;;1.02;74.85;99849.91;5036044;28;20021;-46
2022/01/09 09:22:12;;;;;;;30.98;13.43;;;;;;;1.01;74.82;99849.09;5035682;28;20026;-45
2022/01/09 09:24:38;;;;;;;36.03;13.82;;;;;;;1.06;74.70;99851.09;5036555;28;20021;-46
2022/01/09 09:27:04;;;;;;;26.58;13.40;;;;;;;1.14;74.22;99853.53;5030562;28;20039;-46
2022/01/09 09:29:30;;;;;;;30.08;13.25;;;;;;;1.20;74.38;99858.78;5029429;28;20025;-46
2022/01/09 09:31:56;;;;;;;31.05;14.50;;;;;;;1.26;74.17;99853.69;5034255;28;20029;-45
2022/01/09 09:34:21;;;;;;;28.30;13.98;;;;;;;1.37;74.20;99858.31;5034421;28;20132;-46
2022/01/09 09:36:47;;;;;;;34.92;14.98;;;;;;;1.44;74.00;99862.56;5033917;28;20029;-45
2022/01/09 09:39:13;;;;;;;32.95;14.57;;;;;;;1.50;73.75;99847.69;5032809;28;20025;-46
2022/01/09 09:41:41;;;;;;;30.52;15.43;;;;;;;1.50;73.62;99859.06;5032500;28;20086;-46
2022/01/09 09:44:09;;;;;;;31.55;14.65;;;;;;;1.51;72.98;99852.78;5038932;28;20029;-46
2022/01/09 09:46:37;;;;;;;33.88;14.10;;;;;;;1.52;73.25;99849.09;5040365;28;20025;-46
2022/01/09 09:49:03;;;;;;;30.10;16.08;;;;;;;1.52;73.46;99846.47;5041436;28;20395;-46
2022/01/09 09:51:30;;;;;;;37.53;16.55;;;;;;;1.56;73.21;99854.78;5042211;28;20339;-46
2022/01/09 09:53:57;;;;;;;36.60;15.18;;;;;;;1.55;73.56;99845.22;5040553;28;20196;-46
2022/01/09 09:56:22;;;;;;;33.63;14.88;;;;;;;1.59;73.27;99850.91;5037709;28;20025;-45
2022/01/09 09:58:52;;;;;;;31.55;15.38;;;;;;;1.63;73.18;99846.84;5036467;28;20087;-46
2022/01/09 10:01:27;;;;;;;32.10;15.55;;;;;;;1.61;73.05;99848.84;5039835;28;20466;-46
2022/01/09 10:03:59;;;;;;;33.80;15.43;;;;;;;1.63;73.17;99846.84;5036574;28;20029;-46
2022/01/09 10:06:41;;;;;;;34.33;15.32;;;;;;;1.59;73.05;99848.25;5042198;28;20024;-45
2022/01/09 10:09:11;;;;;;;32.65;15.48;;;;;;;1.65;73.30;99855.34;5035130;28;20036;-47
2022/01/09 10:11:50;;;;;;;33.95;15.45;;;;;;;1.66;72.66;99862.25;5036747;28;20279;-46
2022/01/09 10:14:23;;;;;;;34.28;14.50;;;;;;;1.62;72.88;99866.34;5039092;28;20093;-45
2022/01/09 10:17:11;;;;;;;27.75;14.15;;;;;;;1.58;72.75;99862.47;5036366;28;21496;-46
2022/01/09 10:19:48;;;;;;;32.55;14.85;;;;;;;1.66;72.73;99862.25;5042951;28;20041;-47
2022/01/09 10:22:24;;;;;;;25.27;12.95;;;;;;;1.65;72.24;99865.91;5039847;28;20352;-46
2022/01/09 10:24:50;;;;;;;32.00;15.10;;;;;;;1.63;72.42;99860.03;5036243;28;20036;-46
2022/01/09 10:27:36;;;;;;;27.52;13.95;;;;;;;1.65;72.35;99871.19;5042794;28;20037;-47
2022/01/09 10:30:05;;;;;;;30.95;15.00;;;;;;;1.70;72.75;99868.72;5042096;28;20525;-47
2022/01/09 10:32:32;;;;;;;30.02;15.00;;;;;;;1.76;72.58;99865.22;5036794;28;20036;-46
2022/01/09 10:35:13;;;;;;;28.38;14.15;;;;;;;1.74;72.57;99872.56;5040243;28;20067;-46
2022/01/09 10:37:40;;;;;;;32.47;14.73;;;;;;;1.85;72.22;99879.81;5039369;28;20179;-47
2022/01/09 10:40:09;;;;;;;30.25;14.18;;;;;;;1.86;72.05;99870.06;5041149;28;20032;-47
2022/01/09 10:42:36;;;;;;;29.55;14.98;;;;;;;1.84;72.41;99869.47;5043660;28;20091;-47
2022/01/09 10:45:20;;;;;;;31.60;14.20;;;;;;;1.88;72.40;99875.94;5041813;28;20041;-47
2022/01/09 10:47:45;;;;;;;32.40;14.35;;;;;;;1.93;72.31;99868.97;5038322;28;20025;-46
2022/01/09 10:50:27;;;;;;;31.08;14.25;;;;;;;1.93;71.97;99874.25;5042639;28;20597;-48
2022/01/09 10:53:10;;;;;;;31.52;14.73;;;;;;;1.95;72.13;99872.22;5039408;28;20412;-46
2022/01/09 10:55:36;;;;;;;32.00;13.95;;;;;;;2.00;72.16;99879.53;5039577;28;20048;-46
2022/01/09 10:58:15;;;;;;;30.90;15.35;;;;;;;2.00;71.84;99876.88;5035686;28;20037;-46
2022/01/09 11:00:40;;;;;;;30.77;14.48;;;;;;;2.06;71.87;99879.47;5039590;28;20039;-45
2022/01/09 11:03:05;;;;;;;34.40;14.35;;;;;;;2.05;71.49;99875.22;5039456;28;20024;-46
2022/01/09 11:05:31;;;;;;;31.05;15.20;;;;;;;2.09;71.78;99876.41;5040026;28;20368;-45
2022/01/09 11:07:57;;;;;;;29.65;13.70;;;;;;;2.16;71.51;99870.28;5040884;28;20589;-47
2022/01/09 11:10:23;;;;;;;33.22;14.85;;;;;;;2.20;71.55;99876.75;5036987;28;20060;-46
2022/01/09 11:12:50;;;;;;;28.65;14.10;;;;;;;2.24;71.29;99880.56;5035745;28;20093;-46
2022/01/09 11:15:19;;;;;;;32.45;14.55;;;;;;;2.26;71.34;99876.69;5041829;28;20533;-46
2022/01/09 11:17:45;;;;;;;30.48;13.77;;;;;;;2.28;71.16;99879.13;5038347;28;20033;-46
2022/01/09 11:20:11;;;;;;;30.92;15.50;;;;;;;2.32;71.35;99873.19;5040894;28;20021;-46
2022/01/09 11:22:36;;;;;;;32.03;14.30;;;;;;;2.34;71.08;99881.72;5039691;28;20086;-46
2022/01/09 11:25:37;;;;;;;28.35;14.45;;;;;;;2.30;70.79;99875.22;5038093;28;20131;-46
2022/01/09 11:28:17;;;;;;;31.20;14.80;;;;;;;2.30;70.85;99875.22;4996299;28;20040;-46
2022/01/09 11:31:01;;;;;;;32.85;15.25;;;;;;;2.33;71.01;99887.19;5037368;28;20017;-46